Wildwood, Wisconsin
Current Conditions -  °F | °C
As of 4:35 AM on Wednesday 22 Oct 2014 (Local Time) from KRNH Reporting Station
Clear Clear  
Wind Chill: 32°   Ceiling: Unl
Heat Index: 38°   Visibility: 10mi
Dew Point: 34°   Wind: 9mph
Humidity: 86%   Direction: 140°SE
Pressure: 30.22"   Gusts: NA
Location:  44.9511°N, 92.2794°W
Report Text: KRNH 220935Z AUTO 14008KT 10SM CLR 04/01 A3022 RMK AO2 T00350013
Loading
Personal Weather Stations






























Interactive Weather Map
Tropical Storm Tracking
New forecast layout! Learn more

10-Day Weather Forecast

Advertisements
Track Severe Weather on mobile